sensor_id;sensor_type;location;lat;lon;timestamp;P1;durP1;ratioP1;P2;durP2;ratioP2
78169;SDS011;67412;49.892;14.490;2024-03-02T00:01:57;51.40;;;20.57;;
78169;SDS011;67412;49.892;14.490;2024-03-02T00:04:23;42.13;;;19.35;;
78169;SDS011;67412;49.892;14.490;2024-03-02T00:06:50;46.95;;;21.92;;
78169;SDS011;67412;49.892;14.490;2024-03-02T00:09:18;48.00;;;21.13;;
78169;SDS011;67412;49.892;14.490;2024-03-02T00:11:43;44.40;;;19.85;;
78169;SDS011;67412;49.892;14.490;2024-03-02T00:14:09;45.08;;;19.83;;
78169;SDS011;67412;49.892;14.490;2024-03-02T00:16:34;52.33;;;21.00;;
78169;SDS011;67412;49.892;14.490;2024-03-02T00:19:03;50.63;;;21.08;;
78169;SDS011;67412;49.892;14.490;2024-03-02T00:21:31;48.67;;;21.67;;
78169;SDS011;67412;49.892;14.490;2024-03-02T00:23:58;47.58;;;20.83;;
78169;SDS011;67412;49.892;14.490;2024-03-02T00:26:24;49.08;;;21.60;;
78169;SDS011;67412;49.892;14.490;2024-03-02T00:28:50;46.20;;;20.38;;
78169;SDS011;67412;49.892;14.490;2024-03-02T00:31:22;46.08;;;20.85;;
78169;SDS011;67412;49.892;14.490;2024-03-02T00:33:47;46.28;;;19.80;;
78169;SDS011;67412;49.892;14.490;2024-03-02T00:36:14;46.35;;;20.23;;
78169;SDS011;67412;49.892;14.490;2024-03-02T00:38:43;49.15;;;19.95;;
78169;SDS011;67412;49.892;14.490;2024-03-02T00:41:15;45.22;;;18.80;;
78169;SDS011;67412;49.892;14.490;2024-03-02T00:43:54;46.75;;;20.33;;
78169;SDS011;67412;49.892;14.490;2024-03-02T00:46:22;47.03;;;19.85;;
78169;SDS011;67412;49.892;14.490;2024-03-02T00:48:55;51.13;;;20.25;;
78169;SDS011;67412;49.892;14.490;2024-03-02T00:53:48;43.67;;;18.83;;
78169;SDS011;67412;49.892;14.490;2024-03-02T00:56:14;44.78;;;19.88;;
78169;SDS011;67412;49.892;14.490;2024-03-02T00:58:40;46.67;;;20.35;;
78169;SDS011;67412;49.892;14.490;2024-03-02T01:01:05;46.80;;;19.40;;
78169;SDS011;67412;49.892;14.490;2024-03-02T01:03:32;49.95;;;19.88;;
78169;SDS011;67412;49.892;14.490;2024-03-02T01:05:58;45.13;;;20.90;;
78169;SDS011;67412;49.892;14.490;2024-03-02T01:08:24;45.92;;;18.42;;
78169;SDS011;67412;49.892;14.490;2024-03-02T01:10:49;44.95;;;18.20;;
78169;SDS011;67412;49.892;14.490;2024-03-02T01:13:15;45.05;;;19.38;;
78169;SDS011;67412;49.892;14.490;2024-03-02T01:15:40;43.33;;;17.83;;
78169;SDS011;67412;49.892;14.490;2024-03-02T01:18:05;48.95;;;19.88;;
78169;SDS011;67412;49.892;14.490;2024-03-02T01:20:31;43.00;;;18.92;;
78169;SDS011;67412;49.892;14.490;2024-03-02T01:22:56;45.45;;;18.25;;
78169;SDS011;67412;49.892;14.490;2024-03-02T01:25:21;46.03;;;19.08;;
78169;SDS011;67412;49.892;14.490;2024-03-02T01:27:47;47.30;;;18.20;;
78169;SDS011;67412;49.892;14.490;2024-03-02T01:30:12;46.90;;;18.95;;
78169;SDS011;67412;49.892;14.490;2024-03-02T01:32:38;45.15;;;17.98;;
78169;SDS011;67412;49.892;14.490;2024-03-02T01:35:04;44.20;;;18.83;;
78169;SDS011;67412;49.892;14.490;2024-03-02T01:37:30;40.05;;;17.38;;
78169;SDS011;67412;49.892;14.490;2024-03-02T01:39:55;46.38;;;18.27;;
78169;SDS011;67412;49.892;14.490;2024-03-02T01:42:20;41.88;;;16.88;;
78169;SDS011;67412;49.892;14.490;2024-03-02T01:44:46;45.38;;;17.00;;
78169;SDS011;67412;49.892;14.490;2024-03-02T01:47:11;43.80;;;18.60;;
78169;SDS011;67412;49.892;14.490;2024-03-02T01:49:36;44.80;;;17.45;;
78169;SDS011;67412;49.892;14.490;2024-03-02T01:52:04;43.38;;;17.85;;
78169;SDS011;67412;49.892;14.490;2024-03-02T01:54:29;45.08;;;17.90;;
78169;SDS011;67412;49.892;14.490;2024-03-02T01:56:54;42.53;;;17.00;;
78169;SDS011;67412;49.892;14.490;2024-03-02T01:59:20;42.38;;;16.88;;
78169;SDS011;67412;49.892;14.490;2024-03-02T02:01:45;39.72;;;17.48;;
78169;SDS011;67412;49.892;14.490;2024-03-02T02:04:11;40.97;;;16.58;;
78169;SDS011;67412;49.892;14.490;2024-03-02T02:06:36;38.20;;;16.40;;
78169;SDS011;67412;49.892;14.490;2024-03-02T02:09:01;39.40;;;15.20;;
78169;SDS011;67412;49.892;14.490;2024-03-02T02:11:27;36.30;;;15.05;;
78169;SDS011;67412;49.892;14.490;2024-03-02T02:13:53;35.67;;;15.80;;
78169;SDS011;67412;49.892;14.490;2024-03-02T02:16:20;39.22;;;14.90;;
78169;SDS011;67412;49.892;14.490;2024-03-02T02:18:46;33.95;;;14.15;;
78169;SDS011;67412;49.892;14.490;2024-03-02T02:21:12;37.40;;;15.85;;
78169;SDS011;67412;49.892;14.490;2024-03-02T02:23:37;36.53;;;14.88;;
78169;SDS011;67412;49.892;14.490;2024-03-02T02:26:03;38.38;;;15.70;;
78169;SDS011;67412;49.892;14.490;2024-03-02T02:28:28;35.50;;;14.15;;
78169;SDS011;67412;49.892;14.490;2024-03-02T02:30:54;35.80;;;14.38;;
78169;SDS011;67412;49.892;14.490;2024-03-02T02:33:21;34.35;;;14.35;;
78169;SDS011;67412;49.892;14.490;2024-03-02T02:35:46;34.88;;;12.52;;
78169;SDS011;67412;49.892;14.490;2024-03-02T02:38:12;33.15;;;12.93;;
78169;SDS011;67412;49.892;14.490;2024-03-02T02:40:37;34.42;;;12.85;;
78169;SDS011;67412;49.892;14.490;2024-03-02T02:43:03;31.38;;;12.32;;
78169;SDS011;67412;49.892;14.490;2024-03-02T02:45:28;27.15;;;12.20;;
78169;SDS011;67412;49.892;14.490;2024-03-02T02:47:53;26.35;;;11.43;;
78169;SDS011;67412;49.892;14.490;2024-03-02T02:50:19;27.25;;;11.25;;
78169;SDS011;67412;49.892;14.490;2024-03-02T02:52:45;25.55;;;10.15;;
78169;SDS011;67412;49.892;14.490;2024-03-02T02:55:11;26.20;;;10.15;;
78169;SDS011;67412;49.892;14.490;2024-03-02T02:57:39;24.40;;;9.43;;
78169;SDS011;67412;49.892;14.490;2024-03-02T03:00:15;24.30;;;9.73;;
78169;SDS011;67412;49.892;14.490;2024-03-02T03:02:43;25.85;;;9.77;;
78169;SDS011;67412;49.892;14.490;2024-03-02T03:05:09;24.58;;;10.38;;
78169;SDS011;67412;49.892;14.490;2024-03-02T03:07:36;25.35;;;9.80;;
78169;SDS011;67412;49.892;14.490;2024-03-02T03:10:02;25.85;;;10.20;;
78169;SDS011;67412;49.892;14.490;2024-03-02T03:14:54;24.48;;;9.70;;
78169;SDS011;67412;49.892;14.490;2024-03-02T03:17:23;23.08;;;9.23;;
78169;SDS011;67412;49.892;14.490;2024-03-02T03:19:49;22.55;;;9.75;;
78169;SDS011;67412;49.892;14.490;2024-03-02T03:22:15;22.30;;;8.82;;
78169;SDS011;67412;49.892;14.490;2024-03-02T03:24:40;22.73;;;9.48;;
78169;SDS011;67412;49.892;14.490;2024-03-02T03:27:06;24.65;;;9.30;;
78169;SDS011;67412;49.892;14.490;2024-03-02T03:29:31;25.35;;;9.18;;
78169;SDS011;67412;49.892;14.490;2024-03-02T03:31:57;24.15;;;10.15;;
78169;SDS011;67412;49.892;14.490;2024-03-02T03:34:22;24.25;;;9.95;;
78169;SDS011;67412;49.892;14.490;2024-03-02T03:36:47;22.67;;;8.80;;
78169;SDS011;67412;49.892;14.490;2024-03-02T03:39:13;22.92;;;9.65;;
78169;SDS011;67412;49.892;14.490;2024-03-02T03:41:38;22.55;;;10.15;;
78169;SDS011;67412;49.892;14.490;2024-03-02T03:44:05;28.50;;;11.45;;
78169;SDS011;67412;49.892;14.490;2024-03-02T03:46:30;24.05;;;9.68;;
78169;SDS011;67412;49.892;14.490;2024-03-02T03:48:56;23.50;;;8.55;;
78169;SDS011;67412;49.892;14.490;2024-03-02T03:51:21;20.60;;;9.00;;
78169;SDS011;67412;49.892;14.490;2024-03-02T03:53:49;25.45;;;8.82;;
78169;SDS011;67412;49.892;14.490;2024-03-02T03:56:15;19.02;;;8.63;;
78169;SDS011;67412;49.892;14.490;2024-03-02T03:58:40;23.23;;;9.23;;
78169;SDS011;67412;49.892;14.490;2024-03-02T04:01:05;27.60;;;9.77;;
78169;SDS011;67412;49.892;14.490;2024-03-02T04:03:30;23.85;;;9.43;;
78169;SDS011;67412;49.892;14.490;2024-03-02T04:05:56;17.63;;;7.68;;
78169;SDS011;67412;49.892;14.490;2024-03-02T04:08:21;21.98;;;9.02;;
78169;SDS011;67412;49.892;14.490;2024-03-02T04:10:46;24.75;;;8.75;;
78169;SDS011;67412;49.892;14.490;2024-03-02T04:13:12;21.02;;;8.40;;
78169;SDS011;67412;49.892;14.490;2024-03-02T04:15:37;24.98;;;9.40;;
78169;SDS011;67412;49.892;14.490;2024-03-02T04:18:02;25.20;;;9.63;;
78169;SDS011;67412;49.892;14.490;2024-03-02T04:20:28;27.63;;;10.07;;
78169;SDS011;67412;49.892;14.490;2024-03-02T04:22:54;26.42;;;10.07;;
78169;SDS011;67412;49.892;14.490;2024-03-02T04:25:20;25.98;;;10.82;;
78169;SDS011;67412;49.892;14.490;2024-03-02T04:27:45;27.27;;;10.52;;
78169;SDS011;67412;49.892;14.490;2024-03-02T04:30:10;24.23;;;9.43;;
78169;SDS011;67412;49.892;14.490;2024-03-02T04:32:36;24.13;;;9.98;;
78169;SDS011;67412;49.892;14.490;2024-03-02T04:35:01;23.27;;;9.25;;
78169;SDS011;67412;49.892;14.490;2024-03-02T04:37:27;25.65;;;9.48;;
78169;SDS011;67412;49.892;14.490;2024-03-02T04:39:52;25.92;;;9.50;;
78169;SDS011;67412;49.892;14.490;2024-03-02T04:42:17;23.38;;;9.32;;
78169;SDS011;67412;49.892;14.490;2024-03-02T04:44:43;23.27;;;9.75;;
78169;SDS011;67412;49.892;14.490;2024-03-02T04:47:08;25.45;;;9.52;;
78169;SDS011;67412;49.892;14.490;2024-03-02T04:49:33;23.90;;;9.00;;
78169;SDS011;67412;49.892;14.490;2024-03-02T04:51:59;24.83;;;9.10;;
78169;SDS011;67412;49.892;14.490;2024-03-02T04:54:24;22.85;;;9.98;;
78169;SDS011;67412;49.892;14.490;2024-03-02T04:56:50;24.90;;;9.02;;
78169;SDS011;67412;49.892;14.490;2024-03-02T04:59:16;25.90;;;10.00;;
78169;SDS011;67412;49.892;14.490;2024-03-02T05:01:42;26.20;;;10.55;;
78169;SDS011;67412;49.892;14.490;2024-03-02T05:04:08;22.25;;;9.35;;
78169;SDS011;67412;49.892;14.490;2024-03-02T05:06:35;26.35;;;10.15;;
78169;SDS011;67412;49.892;14.490;2024-03-02T05:09:00;28.05;;;9.27;;
78169;SDS011;67412;49.892;14.490;2024-03-02T05:11:26;23.77;;;9.13;;
78169;SDS011;67412;49.892;14.490;2024-03-02T05:14:11;21.88;;;9.10;;
78169;SDS011;67412;49.892;14.490;2024-03-02T05:16:36;26.67;;;10.32;;
78169;SDS011;67412;49.892;14.490;2024-03-02T05:19:03;24.40;;;9.25;;
78169;SDS011;67412;49.892;14.490;2024-03-02T05:21:31;23.05;;;9.73;;
78169;SDS011;67412;49.892;14.490;2024-03-02T05:23:57;23.10;;;8.98;;
78169;SDS011;67412;49.892;14.490;2024-03-02T05:26:22;24.67;;;9.40;;
78169;SDS011;67412;49.892;14.490;2024-03-02T05:28:47;26.27;;;9.43;;
78169;SDS011;67412;49.892;14.490;2024-03-02T05:31:16;21.70;;;8.82;;
78169;SDS011;67412;49.892;14.490;2024-03-02T05:33:42;26.67;;;9.30;;
78169;SDS011;67412;49.892;14.490;2024-03-02T05:36:07;27.17;;;9.30;;
78169;SDS011;67412;49.892;14.490;2024-03-02T05:38:34;25.60;;;9.75;;
78169;SDS011;67412;49.892;14.490;2024-03-02T05:41:00;23.30;;;8.90;;
78169;SDS011;67412;49.892;14.490;2024-03-02T05:43:25;26.83;;;9.93;;
78169;SDS011;67412;49.892;14.490;2024-03-02T05:45:51;25.02;;;9.20;;
78169;SDS011;67412;49.892;14.490;2024-03-02T05:48:16;21.75;;;9.13;;
78169;SDS011;67412;49.892;14.490;2024-03-02T05:50:41;24.85;;;9.50;;
78169;SDS011;67412;49.892;14.490;2024-03-02T05:53:06;25.23;;;9.23;;
78169;SDS011;67412;49.892;14.490;2024-03-02T05:55:32;25.27;;;10.50;;
78169;SDS011;67412;49.892;14.490;2024-03-02T05:57:57;26.50;;;9.98;;
78169;SDS011;67412;49.892;14.490;2024-03-02T06:00:23;24.83;;;9.70;;
78169;SDS011;67412;49.892;14.490;2024-03-02T06:02:48;23.48;;;10.23;;
78169;SDS011;67412;49.892;14.490;2024-03-02T06:05:14;24.80;;;9.85;;
78169;SDS011;67412;49.892;14.490;2024-03-02T06:07:40;26.98;;;10.50;;
78169;SDS011;67412;49.892;14.490;2024-03-02T06:10:05;25.77;;;10.40;;
78169;SDS011;67412;49.892;14.490;2024-03-02T06:12:32;26.48;;;9.90;;
78169;SDS011;67412;49.892;14.490;2024-03-02T06:14:57;24.38;;;10.40;;
78169;SDS011;67412;49.892;14.490;2024-03-02T06:17:23;26.75;;;10.68;;
78169;SDS011;67412;49.892;14.490;2024-03-02T06:19:48;28.52;;;10.85;;
78169;SDS011;67412;49.892;14.490;2024-03-02T06:22:14;26.27;;;10.05;;
78169;SDS011;67412;49.892;14.490;2024-03-02T06:24:39;24.63;;;10.57;;
78169;SDS011;67412;49.892;14.490;2024-03-02T06:27:05;28.20;;;10.07;;
78169;SDS011;67412;49.892;14.490;2024-03-02T06:29:33;28.70;;;10.50;;
78169;SDS011;67412;49.892;14.490;2024-03-02T06:31:59;27.00;;;10.80;;
78169;SDS011;67412;49.892;14.490;2024-03-02T06:34:25;24.73;;;10.80;;
78169;SDS011;67412;49.892;14.490;2024-03-02T06:36:50;27.40;;;11.00;;
78169;SDS011;67412;49.892;14.490;2024-03-02T06:39:15;27.40;;;10.65;;
78169;SDS011;67412;49.892;14.490;2024-03-02T06:41:41;27.88;;;10.90;;
78169;SDS011;67412;49.892;14.490;2024-03-02T06:44:07;26.85;;;10.63;;
78169;SDS011;67412;49.892;14.490;2024-03-02T06:46:33;25.15;;;10.63;;
78169;SDS011;67412;49.892;14.490;2024-03-02T06:48:58;26.48;;;11.05;;
78169;SDS011;67412;49.892;14.490;2024-03-02T06:51:24;26.13;;;10.88;;
78169;SDS011;67412;49.892;14.490;2024-03-02T06:53:49;25.23;;;10.38;;
78169;SDS011;67412;49.892;14.490;2024-03-02T06:56:14;27.85;;;10.82;;
78169;SDS011;67412;49.892;14.490;2024-03-02T06:58:40;26.92;;;11.32;;
78169;SDS011;67412;49.892;14.490;2024-03-02T07:01:05;25.15;;;10.27;;
78169;SDS011;67412;49.892;14.490;2024-03-02T07:03:30;25.35;;;10.20;;
78169;SDS011;67412;49.892;14.490;2024-03-02T07:05:56;30.02;;;11.05;;
78169;SDS011;67412;49.892;14.490;2024-03-02T07:08:22;27.35;;;11.18;;
78169;SDS011;67412;49.892;14.490;2024-03-02T07:10:47;27.17;;;10.82;;
78169;SDS011;67412;49.892;14.490;2024-03-02T07:13:12;30.77;;;11.38;;
78169;SDS011;67412;49.892;14.490;2024-03-02T07:15:38;29.80;;;12.23;;
78169;SDS011;67412;49.892;14.490;2024-03-02T07:18:22;27.98;;;11.20;;
78169;SDS011;67412;49.892;14.490;2024-03-02T07:20:47;29.15;;;11.18;;
78169;SDS011;67412;49.892;14.490;2024-03-02T07:23:14;26.60;;;10.70;;
78169;SDS011;67412;49.892;14.490;2024-03-02T07:25:40;28.08;;;11.30;;
78169;SDS011;67412;49.892;14.490;2024-03-02T07:28:05;29.67;;;12.30;;
78169;SDS011;67412;49.892;14.490;2024-03-02T07:30:32;28.00;;;11.95;;
78169;SDS011;67412;49.892;14.490;2024-03-02T07:32:58;26.30;;;11.27;;
78169;SDS011;67412;49.892;14.490;2024-03-02T07:35:24;27.80;;;10.65;;
78169;SDS011;67412;49.892;14.490;2024-03-02T07:37:52;26.73;;;10.40;;
78169;SDS011;67412;49.892;14.490;2024-03-02T07:40:18;28.88;;;11.30;;
78169;SDS011;67412;49.892;14.490;2024-03-02T07:42:44;27.75;;;10.70;;
78169;SDS011;67412;49.892;14.490;2024-03-02T07:45:10;26.13;;;10.52;;
78169;SDS011;67412;49.892;14.490;2024-03-02T07:47:36;26.33;;;11.70;;
78169;SDS011;67412;49.892;14.490;2024-03-02T07:50:01;29.38;;;10.38;;
78169;SDS011;67412;49.892;14.490;2024-03-02T07:52:27;27.25;;;10.93;;
78169;SDS011;67412;49.892;14.490;2024-03-02T07:54:53;26.20;;;11.43;;
78169;SDS011;67412;49.892;14.490;2024-03-02T07:57:19;28.80;;;12.05;;
78169;SDS011;67412;49.892;14.490;2024-03-02T07:59:44;26.65;;;10.45;;
78169;SDS011;67412;49.892;14.490;2024-03-02T08:02:10;25.23;;;10.07;;
78169;SDS011;67412;49.892;14.490;2024-03-02T08:04:36;24.38;;;10.40;;
78169;SDS011;67412;49.892;14.490;2024-03-02T08:07:02;27.00;;;11.23;;
78169;SDS011;67412;49.892;14.490;2024-03-02T08:09:27;26.90;;;10.77;;
78169;SDS011;67412;49.892;14.490;2024-03-02T08:11:53;29.77;;;11.00;;
78169;SDS011;67412;49.892;14.490;2024-03-02T08:14:18;22.88;;;9.98;;
78169;SDS011;67412;49.892;14.490;2024-03-02T08:16:44;24.13;;;9.63;;
78169;SDS011;67412;49.892;14.490;2024-03-02T08:19:10;22.27;;;9.30;;
78169;SDS011;67412;49.892;14.490;2024-03-02T08:21:36;23.73;;;9.85;;
78169;SDS011;67412;49.892;14.490;2024-03-02T08:24:02;24.08;;;10.35;;
78169;SDS011;67412;49.892;14.490;2024-03-02T08:26:27;27.23;;;10.85;;
78169;SDS011;67412;49.892;14.490;2024-03-02T08:28:57;28.45;;;10.52;;
78169;SDS011;67412;49.892;14.490;2024-03-02T08:31:23;25.05;;;10.38;;
78169;SDS011;67412;49.892;14.490;2024-03-02T08:33:48;24.75;;;10.88;;
78169;SDS011;67412;49.892;14.490;2024-03-02T08:36:13;25.35;;;9.57;;
78169;SDS011;67412;49.892;14.490;2024-03-02T08:38:39;25.52;;;10.30;;
78169;SDS011;67412;49.892;14.490;2024-03-02T08:41:05;24.08;;;9.77;;
78169;SDS011;67412;49.892;14.490;2024-03-02T08:43:32;27.15;;;10.07;;
78169;SDS011;67412;49.892;14.490;2024-03-02T08:45:57;26.33;;;10.10;;
78169;SDS011;67412;49.892;14.490;2024-03-02T08:48:23;24.73;;;10.27;;
78169;SDS011;67412;49.892;14.490;2024-03-02T08:50:48;23.55;;;9.65;;
78169;SDS011;67412;49.892;14.490;2024-03-02T08:53:13;27.85;;;10.35;;
78169;SDS011;67412;49.892;14.490;2024-03-02T08:55:43;23.83;;;9.45;;
78169;SDS011;67412;49.892;14.490;2024-03-02T08:58:08;23.05;;;9.70;;
78169;SDS011;67412;49.892;14.490;2024-03-02T09:00:33;24.58;;;9.52;;
78169;SDS011;67412;49.892;14.490;2024-03-02T09:02:59;20.98;;;9.00;;
78169;SDS011;67412;49.892;14.490;2024-03-02T09:05:24;26.63;;;10.40;;
78169;SDS011;67412;49.892;14.490;2024-03-02T09:07:50;21.73;;;9.57;;
78169;SDS011;67412;49.892;14.490;2024-03-02T09:10:15;23.00;;;10.30;;
78169;SDS011;67412;49.892;14.490;2024-03-02T09:12:40;26.23;;;9.85;;
78169;SDS011;67412;49.892;14.490;2024-03-02T09:15:06;23.23;;;8.98;;
78169;SDS011;67412;49.892;14.490;2024-03-02T09:17:32;21.33;;;9.02;;
78169;SDS011;67412;49.892;14.490;2024-03-02T09:19:57;24.65;;;9.45;;
78169;SDS011;67412;49.892;14.490;2024-03-02T09:22:23;21.95;;;8.45;;
78169;SDS011;67412;49.892;14.490;2024-03-02T09:24:48;23.50;;;9.00;;
78169;SDS011;67412;49.892;14.490;2024-03-02T09:27:14;22.20;;;8.93;;
78169;SDS011;67412;49.892;14.490;2024-03-02T09:29:39;20.48;;;8.32;;
78169;SDS011;67412;49.892;14.490;2024-03-02T09:32:08;21.55;;;8.40;;
78169;SDS011;67412;49.892;14.490;2024-03-02T09:34:37;20.38;;;8.43;;
78169;SDS011;67412;49.892;14.490;2024-03-02T09:37:02;19.77;;;8.07;;
78169;SDS011;67412;49.892;14.490;2024-03-02T09:39:28;19.38;;;8.52;;
78169;SDS011;67412;49.892;14.490;2024-03-02T09:41:55;19.92;;;8.13;;
78169;SDS011;67412;49.892;14.490;2024-03-02T09:44:20;19.50;;;7.63;;
78169;SDS011;67412;49.892;14.490;2024-03-02T09:46:50;21.08;;;9.63;;
78169;SDS011;67412;49.892;14.490;2024-03-02T09:49:16;19.90;;;8.13;;
78169;SDS011;67412;49.892;14.490;2024-03-02T09:51:42;18.20;;;7.50;;
78169;SDS011;67412;49.892;14.490;2024-03-02T09:54:12;20.52;;;8.07;;
78169;SDS011;67412;49.892;14.490;2024-03-02T09:56:37;19.50;;;7.57;;
78169;SDS011;67412;49.892;14.490;2024-03-02T09:59:04;19.00;;;7.53;;
78169;SDS011;67412;49.892;14.490;2024-03-02T10:01:30;18.75;;;8.50;;
78169;SDS011;67412;49.892;14.490;2024-03-02T10:03:57;19.50;;;8.30;;
78169;SDS011;67412;49.892;14.490;2024-03-02T10:06:25;19.08;;;8.48;;
78169;SDS011;67412;49.892;14.490;2024-03-02T10:08:51;17.42;;;7.75;;
78169;SDS011;67412;49.892;14.490;2024-03-02T10:14:05;19.33;;;7.45;;
78169;SDS011;67412;49.892;14.490;2024-03-02T10:16:34;17.27;;;7.28;;
78169;SDS011;67412;49.892;14.490;2024-03-02T10:19:22;18.95;;;8.38;;
78169;SDS011;67412;49.892;14.490;2024-03-02T10:21:48;21.85;;;8.88;;
78169;SDS011;67412;49.892;14.490;2024-03-02T10:24:17;19.33;;;7.32;;
78169;SDS011;67412;49.892;14.490;2024-03-02T10:26:43;20.17;;;7.95;;
78169;SDS011;67412;49.892;14.490;2024-03-02T10:29:09;19.30;;;7.80;;
78169;SDS011;67412;49.892;14.490;2024-03-02T10:31:38;20.70;;;8.25;;
78169;SDS011;67412;49.892;14.490;2024-03-02T10:34:04;19.20;;;8.45;;
78169;SDS011;67412;49.892;14.490;2024-03-02T10:36:31;16.52;;;7.07;;
78169;SDS011;67412;49.892;14.490;2024-03-02T10:38:58;19.77;;;8.20;;
78169;SDS011;67412;49.892;14.490;2024-03-02T10:41:24;18.15;;;7.65;;
78169;SDS011;67412;49.892;14.490;2024-03-02T10:43:52;18.17;;;7.40;;
78169;SDS011;67412;49.892;14.490;2024-03-02T10:46:24;17.00;;;6.55;;
78169;SDS011;67412;49.892;14.490;2024-03-02T10:48:56;17.05;;;6.03;;
78169;SDS011;67412;49.892;14.490;2024-03-02T10:51:25;16.58;;;6.85;;
78169;SDS011;67412;49.892;14.490;2024-03-02T10:53:52;20.63;;;8.25;;
78169;SDS011;67412;49.892;14.490;2024-03-02T10:56:23;16.38;;;7.25;;
78169;SDS011;67412;49.892;14.490;2024-03-02T10:59:03;19.30;;;7.55;;
78169;SDS011;67412;49.892;14.490;2024-03-02T11:01:41;15.25;;;6.63;;
78169;SDS011;67412;49.892;14.490;2024-03-02T11:06:33;18.65;;;7.20;;
78169;SDS011;67412;49.892;14.490;2024-03-02T11:09:05;16.20;;;6.93;;
78169;SDS011;67412;49.892;14.490;2024-03-02T11:11:34;19.30;;;8.55;;
78169;SDS011;67412;49.892;14.490;2024-03-02T11:14:02;16.05;;;7.55;;
78169;SDS011;67412;49.892;14.490;2024-03-02T11:19:05;18.05;;;8.00;;
78169;SDS011;67412;49.892;14.490;2024-03-02T11:21:35;18.63;;;7.78;;
78169;SDS011;67412;49.892;14.490;2024-03-02T11:26:47;17.73;;;7.60;;
78169;SDS011;67412;49.892;14.490;2024-03-02T11:32:00;18.17;;;7.38;;
78169;SDS011;67412;49.892;14.490;2024-03-02T11:34:35;15.55;;;6.85;;
78169;SDS011;67412;49.892;14.490;2024-03-02T11:37:01;18.23;;;7.80;;
78169;SDS011;67412;49.892;14.490;2024-03-02T11:39:27;16.90;;;7.80;;
78169;SDS011;67412;49.892;14.490;2024-03-02T11:41:54;17.38;;;7.38;;
78169;SDS011;67412;49.892;14.490;2024-03-02T11:46:47;17.95;;;7.05;;
78169;SDS011;67412;49.892;14.490;2024-03-02T11:49:40;13.60;;;6.47;;
78169;SDS011;67412;49.892;14.490;2024-03-02T11:52:06;16.33;;;7.47;;
78169;SDS011;67412;49.892;14.490;2024-03-02T11:54:33;13.88;;;6.32;;
78169;SDS011;67412;49.892;14.490;2024-03-02T11:57:02;15.57;;;6.47;;
78169;SDS011;67412;49.892;14.490;2024-03-02T11:59:28;19.40;;;7.93;;
78169;SDS011;67412;49.892;14.490;2024-03-02T12:04:21;16.33;;;6.88;;
78169;SDS011;67412;49.892;14.490;2024-03-02T12:06:46;16.20;;;6.95;;
78169;SDS011;67412;49.892;14.490;2024-03-02T12:09:13;18.40;;;7.90;;
78169;SDS011;67412;49.892;14.490;2024-03-02T12:11:40;19.42;;;7.95;;
78169;SDS011;67412;49.892;14.490;2024-03-02T12:14:10;19.35;;;7.38;;
78169;SDS011;67412;49.892;14.490;2024-03-02T12:16:37;16.27;;;7.78;;
78169;SDS011;67412;49.892;14.490;2024-03-02T12:21:30;16.92;;;6.95;;
78169;SDS011;67412;49.892;14.490;2024-03-02T12:23:55;16.05;;;8.00;;
78169;SDS011;67412;49.892;14.490;2024-03-02T12:26:20;18.58;;;8.00;;
78169;SDS011;67412;49.892;14.490;2024-03-02T12:28:47;17.60;;;8.13;;
78169;SDS011;67412;49.892;14.490;2024-03-02T12:31:13;18.38;;;7.82;;
78169;SDS011;67412;49.892;14.490;2024-03-02T12:33:39;18.88;;;8.05;;
78169;SDS011;67412;49.892;14.490;2024-03-02T12:36:09;17.10;;;7.30;;
78169;SDS011;67412;49.892;14.490;2024-03-02T12:38:34;19.38;;;7.85;;
78169;SDS011;67412;49.892;14.490;2024-03-02T12:41:00;18.13;;;7.70;;
78169;SDS011;67412;49.892;14.490;2024-03-02T12:43:29;19.02;;;7.57;;
78169;SDS011;67412;49.892;14.490;2024-03-02T12:45:55;18.10;;;7.75;;
78169;SDS011;67412;49.892;14.490;2024-03-02T12:48:21;17.30;;;7.40;;
78169;SDS011;67412;49.892;14.490;2024-03-02T12:50:46;17.08;;;7.32;;
78169;SDS011;67412;49.892;14.490;2024-03-02T12:53:15;17.92;;;7.80;;
78169;SDS011;67412;49.892;14.490;2024-03-02T12:55:41;16.27;;;7.68;;
78169;SDS011;67412;49.892;14.490;2024-03-02T12:58:08;19.67;;;8.35;;
78169;SDS011;67412;49.892;14.490;2024-03-02T13:00:33;18.83;;;8.07;;
78169;SDS011;67412;49.892;14.490;2024-03-02T13:03:00;18.60;;;8.27;;
78169;SDS011;67412;49.892;14.490;2024-03-02T13:05:31;17.70;;;7.80;;
78169;SDS011;67412;49.892;14.490;2024-03-02T13:07:57;15.23;;;6.78;;
78169;SDS011;67412;49.892;14.490;2024-03-02T13:10:24;19.95;;;8.25;;
78169;SDS011;67412;49.892;14.490;2024-03-02T13:12:50;17.52;;;7.47;;
78169;SDS011;67412;49.892;14.490;2024-03-02T13:15:15;19.15;;;8.20;;
78169;SDS011;67412;49.892;14.490;2024-03-02T13:17:40;17.70;;;8.25;;
78169;SDS011;67412;49.892;14.490;2024-03-02T13:20:06;17.80;;;8.25;;
78169;SDS011;67412;49.892;14.490;2024-03-02T13:22:35;19.17;;;9.10;;
78169;SDS011;67412;49.892;14.490;2024-03-02T13:25:01;19.58;;;8.93;;
78169;SDS011;67412;49.892;14.490;2024-03-02T13:27:29;23.70;;;8.90;;
78169;SDS011;67412;49.892;14.490;2024-03-02T13:29:55;18.70;;;8.57;;
78169;SDS011;67412;49.892;14.490;2024-03-02T13:32:20;23.60;;;9.48;;
78169;SDS011;67412;49.892;14.490;2024-03-02T13:34:49;19.17;;;8.52;;
78169;SDS011;67412;49.892;14.490;2024-03-02T13:37:14;21.38;;;8.70;;
78169;SDS011;67412;49.892;14.490;2024-03-02T13:39:40;17.75;;;8.02;;
78169;SDS011;67412;49.892;14.490;2024-03-02T13:42:10;19.38;;;8.02;;
78169;SDS011;67412;49.892;14.490;2024-03-02T13:44:36;16.17;;;7.95;;
78169;SDS011;67412;49.892;14.490;2024-03-02T13:47:02;18.48;;;8.25;;
78169;SDS011;67412;49.892;14.490;2024-03-02T13:49:28;17.38;;;8.13;;
78169;SDS011;67412;49.892;14.490;2024-03-02T13:52:07;19.73;;;8.32;;
78169;SDS011;67412;49.892;14.490;2024-03-02T13:54:39;18.55;;;8.55;;
78169;SDS011;67412;49.892;14.490;2024-03-02T13:57:06;18.15;;;7.78;;
78169;SDS011;67412;49.892;14.490;2024-03-02T13:59:32;21.15;;;8.20;;
78169;SDS011;67412;49.892;14.490;2024-03-02T14:04:24;18.60;;;7.67;;
78169;SDS011;67412;49.892;14.490;2024-03-02T14:06:49;19.23;;;8.45;;
78169;SDS011;67412;49.892;14.490;2024-03-02T14:09:14;18.33;;;8.10;;
78169;SDS011;67412;49.892;14.490;2024-03-02T14:11:40;19.27;;;8.57;;
78169;SDS011;67412;49.892;14.490;2024-03-02T14:14:05;20.52;;;8.52;;
78169;SDS011;67412;49.892;14.490;2024-03-02T14:16:30;20.52;;;8.50;;
78169;SDS011;67412;49.892;14.490;2024-03-02T14:18:56;19.20;;;8.15;;
78169;SDS011;67412;49.892;14.490;2024-03-02T14:21:21;19.73;;;8.00;;
78169;SDS011;67412;49.892;14.490;2024-03-02T14:23:46;16.13;;;8.00;;
78169;SDS011;67412;49.892;14.490;2024-03-02T14:26:12;20.05;;;8.63;;
78169;SDS011;67412;49.892;14.490;2024-03-02T14:28:37;22.50;;;9.50;;
78169;SDS011;67412;49.892;14.490;2024-03-02T14:31:03;20.13;;;8.82;;
78169;SDS011;67412;49.892;14.490;2024-03-02T14:33:28;19.30;;;8.90;;
78169;SDS011;67412;49.892;14.490;2024-03-02T14:35:53;17.65;;;8.10;;
78169;SDS011;67412;49.892;14.490;2024-03-02T14:38:19;21.35;;;7.80;;
78169;SDS011;67412;49.892;14.490;2024-03-02T14:40:45;16.75;;;7.97;;